createdAt,value
2018-04-28T00:01:51.340Z,13.27
2018-04-28T00:04:19.842Z,14.57
2018-04-28T00:06:48.371Z,13.17
2018-04-28T00:09:16.939Z,14.47
2018-04-28T00:11:45.464Z,14.70
2018-04-28T00:14:13.953Z,14.00
2018-04-28T00:16:53.729Z,14.23
2018-04-28T00:19:26.303Z,14.00
2018-04-28T00:21:56.170Z,13.43
2018-04-28T00:24:44.279Z,13.80
2018-04-28T00:27:12.799Z,14.40
2018-04-28T00:29:45.148Z,12.70
2018-04-28T00:32:13.683Z,15.33
2018-04-28T00:34:45.761Z,13.93
2018-04-28T00:37:16.067Z,14.80
2018-04-28T00:42:48.922Z,14.57
2018-04-28T00:45:20.919Z,15.53
2018-04-28T00:47:49.475Z,14.53
2018-04-28T00:50:32.664Z,15.60
2018-04-28T00:53:01.184Z,16.07
2018-04-28T00:55:30.596Z,15.87
2018-04-28T00:58:06.875Z,14.93
2018-04-28T01:00:45.389Z,15.23
2018-04-28T01:03:13.845Z,14.27
2018-04-28T01:05:49.345Z,15.90
2018-04-28T01:08:27.720Z,14.17
2018-04-28T01:10:58.870Z,15.20
2018-04-28T01:13:39.127Z,14.63
2018-04-28T01:16:08.311Z,16.13
2018-04-28T01:18:46.469Z,19.23
2018-04-28T01:21:21.299Z,15.80
2018-04-28T01:27:19.337Z,19.60
2018-04-28T01:36:20.391Z,25.03
2018-04-28T01:38:48.868Z,27.27
2018-04-28T01:41:28.212Z,33.23
2018-04-28T01:43:59.501Z,34.00
2018-04-28T01:46:30.830Z,30.67
2018-04-28T01:49:04.083Z,32.77
2018-04-28T01:51:36.337Z,30.13
2018-04-28T01:57:34.816Z,32.80
2018-04-28T02:06:16.038Z,29.47
2018-04-28T02:08:47.027Z,31.23
2018-04-28T02:11:17.198Z,32.70
2018-04-28T02:13:45.735Z,29.67
2018-04-28T02:19:22.971Z,30.90
2018-04-28T02:22:00.418Z,31.17
2018-04-28T02:24:40.947Z,28.67
2018-04-28T02:27:10.378Z,30.37
2018-04-28T02:29:39.774Z,24.93
2018-04-28T02:32:10.231Z,25.53
2018-04-28T02:34:44.528Z,26.53
2018-04-28T02:40:20.163Z,28.50
2018-04-28T02:42:51.455Z,27.63
2018-04-28T02:48:47.722Z,27.43
2018-04-28T02:51:31.865Z,28.00
2018-04-28T02:54:01.272Z,28.63
2018-04-28T02:59:32.204Z,25.50
2018-04-28T03:02:01.586Z,25.23
2018-04-28T03:04:50.996Z,25.63
2018-04-28T03:10:23.607Z,25.97
2018-04-28T03:12:51.854Z,24.30
2018-04-28T03:15:20.170Z,25.27
2018-04-28T03:18:01.227Z,24.70
2018-04-28T03:20:44.185Z,24.87
2018-04-28T03:26:33.213Z,23.07
2018-04-28T03:29:03.255Z,25.80
2018-04-28T03:31:35.076Z,25.50
2018-04-28T03:37:05.379Z,24.57
2018-04-28T03:39:44.385Z,24.20
2018-04-28T03:42:14.717Z,25.30
2018-04-28T03:44:54.184Z,23.43
2018-04-28T03:50:40.947Z,23.43
2018-04-28T03:53:18.098Z,22.57
2018-04-28T03:55:46.317Z,22.67
2018-04-28T03:58:26.544Z,23.30
2018-04-28T04:01:06.623Z,23.30
2018-04-28T04:03:34.815Z,24.63
2018-04-28T04:06:09.954Z,22.33
2018-04-28T04:08:38.247Z,24.03
2018-04-28T04:14:12.087Z,22.47
2018-04-28T04:16:49.859Z,22.83
2018-04-28T04:19:18.111Z,23.97
2018-04-28T04:24:51.298Z,22.13
2018-04-28T04:27:31.659Z,22.33
2018-04-28T04:32:56.836Z,20.03
2018-04-28T04:38:29.984Z,19.77
2018-04-28T04:41:08.469Z,20.27
2018-04-28T04:43:49.160Z,19.20
2018-04-28T04:46:29.351Z,19.40
2018-04-28T04:52:06.127Z,19.07
2018-04-28T05:00:52.094Z,18.27
2018-04-28T05:03:26.145Z,18.13
2018-04-28T05:09:19.704Z,16.70
2018-04-28T05:11:53.786Z,15.30
2018-04-28T05:14:23.033Z,15.63
2018-04-28T05:16:57.821Z,14.37
2018-04-28T05:19:32.875Z,15.90
2018-04-28T05:22:02.995Z,15.77
2018-04-28T05:27:29.855Z,13.93
2018-04-28T05:33:16.096Z,13.60
2018-04-28T05:35:52.040Z,12.63
2018-04-28T05:41:48.068Z,14.87
2018-04-28T05:44:20.650Z,12.53
2018-04-28T05:46:59.200Z,11.97
2018-04-28T05:49:33.476Z,14.67
2018-04-28T05:52:07.624Z,13.43
2018-04-28T06:00:57.453Z,12.83
2018-04-28T06:03:35.272Z,12.03
2018-04-28T06:09:21.544Z,11.83
2018-04-28T06:15:09.756Z,11.03
2018-04-28T06:20:43.167Z,10.70
2018-04-28T06:23:11.443Z,12.03
2018-04-28T06:25:39.658Z,10.83
2018-04-28T06:28:07.848Z,11.83
2018-04-28T06:30:36.586Z,12.13
2018-04-28T06:33:04.883Z,11.40
2018-04-28T06:35:33.083Z,10.27
2018-04-28T06:38:01.430Z,10.60
2018-04-28T06:40:29.675Z,11.33
2018-04-28T06:42:57.967Z,9.97
2018-04-28T06:45:26.318Z,11.10
2018-04-28T06:47:54.633Z,10.80
2018-04-28T06:50:22.837Z,11.97
2018-04-28T06:52:51.015Z,11.23
2018-04-28T06:55:19.251Z,11.70
2018-04-28T06:57:47.482Z,11.07
2018-04-28T07:00:15.786Z,11.83
2018-04-28T07:02:45.179Z,11.97
2018-04-28T07:05:13.368Z,13.10
2018-04-28T07:07:41.698Z,10.97
2018-04-28T07:10:09.982Z,11.50
2018-04-28T07:12:38.403Z,10.67
2018-04-28T07:15:06.596Z,11.60
2018-04-28T07:17:34.898Z,13.00
2018-04-28T07:20:03.142Z,10.80
2018-04-28T07:22:31.420Z,11.80
2018-04-28T07:24:59.725Z,10.73
2018-04-28T07:27:27.995Z,12.60
2018-04-28T07:29:56.430Z,13.40
2018-04-28T07:32:24.819Z,12.03
2018-04-28T07:34:53.203Z,12.03
2018-04-28T07:37:21.395Z,12.30
2018-04-28T07:39:49.624Z,12.77
2018-04-28T07:42:17.858Z,11.77
2018-04-28T07:44:46.043Z,12.37
2018-04-28T07:47:14.245Z,11.20
2018-04-28T07:49:42.485Z,11.90
2018-04-28T07:52:10.712Z,12.23
2018-04-28T07:54:39.830Z,12.97
2018-04-28T07:57:08.065Z,12.17
2018-04-28T07:59:36.200Z,11.10
2018-04-28T08:02:04.392Z,12.73
2018-04-28T08:04:32.779Z,13.37
2018-04-28T08:07:01.056Z,12.77
2018-04-28T08:09:29.373Z,13.27
2018-04-28T08:11:57.624Z,14.83
2018-04-28T08:14:25.831Z,14.33
2018-04-28T08:16:54.027Z,13.03
2018-04-28T08:19:22.352Z,13.10
2018-04-28T08:21:50.771Z,10.83
2018-04-28T08:24:18.981Z,13.67
2018-04-28T08:26:47.162Z,14.87
2018-04-28T08:29:15.398Z,13.97
2018-04-28T08:31:43.590Z,12.43
2018-04-28T08:34:11.920Z,14.17
2018-04-28T08:36:40.186Z,13.03
2018-04-28T08:39:08.375Z,13.53
2018-04-28T08:41:36.620Z,15.80
2018-04-28T08:44:04.772Z,16.23
2018-04-28T08:46:33.027Z,18.23
2018-04-28T08:49:01.182Z,14.23
2018-04-28T08:51:29.420Z,15.03
2018-04-28T08:53:57.603Z,16.40
2018-04-28T08:56:25.884Z,15.03
2018-04-28T08:58:54.119Z,16.57
2018-04-28T09:01:22.249Z,14.60
2018-04-28T09:03:50.422Z,13.60
2018-04-28T09:06:18.665Z,14.97
2018-04-28T09:08:46.778Z,16.30
2018-04-28T09:11:15.256Z,16.03
2018-04-28T09:13:43.768Z,16.97
2018-04-28T09:16:12.327Z,15.60
2018-04-28T10:05:22.487Z,15.67
2018-04-28T10:07:51.117Z,17.33
2018-04-28T10:10:19.666Z,17.40
2018-04-28T10:12:48.160Z,16.73
2018-04-28T10:15:16.680Z,17.97
2018-04-28T10:17:45.227Z,16.62
2018-04-28T10:20:13.686Z,15.50
2018-04-28T10:22:42.117Z,14.73
2018-04-28T10:25:10.727Z,15.02
2018-04-28T10:27:39.189Z,17.33
2018-04-28T10:30:07.646Z,16.05
2018-04-28T10:32:36.134Z,16.70
2018-04-28T10:35:04.595Z,16.87
2018-04-28T10:37:33.078Z,18.15
2018-04-28T10:40:01.515Z,16.55
2018-04-28T10:42:29.964Z,15.18
2018-04-28T10:44:58.435Z,17.08
2018-04-28T10:47:26.957Z,16.35
2018-04-28T10:49:55.368Z,14.82
2018-04-28T10:52:23.878Z,15.20
2018-04-28T10:54:52.337Z,16.62
2018-04-28T10:57:20.752Z,16.67
2018-04-28T10:59:49.242Z,16.17
2018-04-28T11:02:17.688Z,15.77
2018-04-28T11:04:46.155Z,14.80
2018-04-28T11:07:14.601Z,14.90
2018-04-28T11:09:43.104Z,13.65
2018-04-28T11:12:11.548Z,14.75
2018-04-28T11:14:40.298Z,15.90
2018-04-28T11:17:08.716Z,13.48
2018-04-28T11:19:37.229Z,15.05
2018-04-28T11:22:05.814Z,13.45
2018-04-28T11:24:34.258Z,15.15
2018-04-28T11:27:02.704Z,14.15
2018-04-28T11:29:31.124Z,14.87
2018-04-28T11:31:59.581Z,13.88
2018-04-28T11:34:27.973Z,14.25
2018-04-28T11:36:56.419Z,13.15
2018-04-28T11:39:24.827Z,12.48
2018-04-28T11:41:53.268Z,11.23
2018-04-28T11:44:21.682Z,14.63
2018-04-28T11:46:50.144Z,11.88
2018-04-28T11:49:18.574Z,12.10
2018-04-28T11:51:47.031Z,11.88
2018-04-28T11:54:15.442Z,10.48
2018-04-28T11:56:43.927Z,11.40
2018-04-28T11:59:12.404Z,10.52
2018-04-28T12:01:40.805Z,13.00
2018-04-28T12:04:09.278Z,10.88
2018-04-28T12:06:37.753Z,10.77
2018-04-28T12:09:06.196Z,12.00
2018-04-28T12:11:34.667Z,10.35
2018-04-28T12:14:03.088Z,11.77
2018-04-28T12:16:31.514Z,11.20
2018-04-28T12:19:00.018Z,11.90
2018-04-28T12:21:28.424Z,13.52
2018-04-28T12:23:56.859Z,14.15
2018-04-28T12:26:25.312Z,14.10
2018-04-28T12:28:53.756Z,12.60
2018-04-28T12:31:22.273Z,12.25
2018-04-28T12:33:50.908Z,12.30
2018-04-28T12:36:19.318Z,13.32
2018-04-28T12:38:47.735Z,11.75
2018-04-28T12:41:16.177Z,13.82
2018-04-28T12:43:44.655Z,14.02
2018-04-28T12:46:13.128Z,13.57
2018-04-28T12:48:41.611Z,13.62
2018-04-28T12:51:10.132Z,13.10
2018-04-28T12:53:38.538Z,12.45
2018-04-28T12:56:07.159Z,14.13
2018-04-28T12:58:35.598Z,12.13
2018-04-28T13:01:04.036Z,12.00
2018-04-28T13:03:32.475Z,11.05
2018-04-28T13:06:00.924Z,11.07
2018-04-28T13:08:29.345Z,12.73
2018-04-28T13:10:57.787Z,11.80
2018-04-28T13:13:26.266Z,11.35
2018-04-28T13:15:54.671Z,10.88
2018-04-28T13:18:23.178Z,11.50
2018-04-28T13:20:51.611Z,10.18
2018-04-28T13:23:20.059Z,9.00
2018-04-28T13:25:48.479Z,9.93
2018-04-28T13:28:16.924Z,10.02
2018-04-28T13:30:45.395Z,9.63
2018-04-28T13:33:13.837Z,9.68
2018-04-28T13:35:42.283Z,10.73
2018-04-28T13:38:10.741Z,8.65
2018-04-28T13:40:39.299Z,9.20
2018-04-28T13:43:07.691Z,9.13
2018-04-28T13:45:36.208Z,9.90
2018-04-28T13:48:04.639Z,8.73
2018-04-28T13:50:33.088Z,8.48
2018-04-28T13:53:01.514Z,10.15
2018-04-28T13:55:29.933Z,9.70
2018-04-28T13:57:58.426Z,10.02
2018-04-28T14:00:26.841Z,9.75
2018-04-28T14:02:55.319Z,11.90
2018-04-28T14:05:23.746Z,10.82
2018-04-28T14:07:52.172Z,11.40
2018-04-28T14:10:20.759Z,12.23
2018-04-28T14:12:49.155Z,12.00
2018-04-28T14:15:17.542Z,11.35
2018-04-28T14:17:46.072Z,12.18
2018-04-28T14:20:14.512Z,11.82
2018-04-28T14:22:43.046Z,11.80
2018-04-28T14:25:11.510Z,10.68
2018-04-28T14:27:39.943Z,11.75
2018-04-28T14:30:08.407Z,11.50
2018-04-28T14:32:36.978Z,11.80
2018-04-28T14:35:05.402Z,12.45
2018-04-28T14:37:33.829Z,11.23
2018-04-28T14:40:02.291Z,11.27
2018-04-28T14:42:41.872Z,10.55
2018-04-28T14:45:10.286Z,10.32
2018-04-28T14:47:38.771Z,10.35
2018-04-28T14:50:07.215Z,10.38
2018-04-28T14:52:35.665Z,10.63
2018-04-28T14:55:07.601Z,10.52
2018-04-28T14:57:36.959Z,11.23
2018-04-28T15:00:05.352Z,10.27
2018-04-28T15:02:33.848Z,10.55
2018-04-28T15:05:02.315Z,9.80
2018-04-28T15:07:30.752Z,10.13
2018-04-28T15:09:59.624Z,10.27
2018-04-28T15:12:28.029Z,12.18
2018-04-28T15:14:56.490Z,10.82
2018-04-28T15:17:25.164Z,12.15
2018-04-28T15:19:53.635Z,14.32
2018-04-28T15:22:22.059Z,14.70
2018-04-28T15:24:50.615Z,15.00
2018-04-28T15:27:19.011Z,14.50
2018-04-28T15:29:47.560Z,16.17
2018-04-28T15:32:16.303Z,14.55
2018-04-28T15:34:44.702Z,15.93
2018-04-28T15:37:13.190Z,15.45
2018-04-28T15:39:42.129Z,16.60
2018-04-28T15:42:10.535Z,15.57
2018-04-28T15:44:38.935Z,15.23
2018-04-28T15:47:07.473Z,15.02
2018-04-28T15:49:35.915Z,17.05
2018-04-28T15:52:04.356Z,16.23
2018-04-28T15:54:32.812Z,15.50
2018-04-28T15:57:01.277Z,17.63
2018-04-28T15:59:29.731Z,17.33
2018-04-28T16:01:58.203Z,16.40
2018-04-28T16:04:26.619Z,15.80
2018-04-28T16:06:55.075Z,17.55
2018-04-28T16:09:23.555Z,15.30
2018-04-28T16:11:52.046Z,13.47
2018-04-28T16:14:20.455Z,11.93
2018-04-28T16:16:48.929Z,13.07
2018-04-28T16:19:17.322Z,12.33
2018-04-28T16:21:45.835Z,10.87
2018-04-28T16:24:14.224Z,12.83
2018-04-28T16:26:42.682Z,11.60
2018-04-28T16:29:11.091Z,11.23
2018-04-28T16:31:39.552Z,12.37
2018-04-28T16:34:07.984Z,11.23
2018-04-28T16:36:36.611Z,10.87
2018-04-28T16:39:05.172Z,10.60
2018-04-28T16:41:33.615Z,10.83
2018-04-28T16:44:02.195Z,11.23
2018-04-28T16:46:30.724Z,11.87
2018-04-28T16:48:59.176Z,12.80
2018-04-28T16:51:27.664Z,12.47
2018-04-28T16:53:56.105Z,11.60
2018-04-28T16:56:24.524Z,12.73
2018-04-28T16:58:52.978Z,12.03
2018-04-28T17:01:21.423Z,11.67
2018-04-28T17:03:49.927Z,10.43
2018-04-28T17:06:18.413Z,11.40
2018-04-28T17:08:46.890Z,11.67
2018-04-28T17:11:15.312Z,11.67
2018-04-28T17:13:43.914Z,11.30
2018-04-28T17:16:12.599Z,11.57
2018-04-28T17:18:41.051Z,11.30
2018-04-28T17:21:09.502Z,10.17
2018-04-28T17:23:37.899Z,10.80
2018-04-28T17:26:06.336Z,11.40
2018-04-28T17:28:34.752Z,10.60
2018-04-28T17:31:03.216Z,10.67
2018-04-28T17:33:31.620Z,11.10
2018-04-28T17:36:00.142Z,10.90
2018-04-28T17:38:28.564Z,11.23
2018-04-28T17:40:57.021Z,10.37
2018-04-28T17:43:25.435Z,12.47
2018-04-28T17:45:53.848Z,10.17
2018-04-28T17:48:22.311Z,10.67
2018-04-28T17:50:50.755Z,11.53
2018-04-28T17:53:19.201Z,12.70
2018-04-28T17:55:47.807Z,11.23
2018-04-28T17:58:16.227Z,12.20
2018-04-28T18:00:44.632Z,10.90
2018-04-28T18:03:13.038Z,10.67
2018-04-28T18:05:41.477Z,10.10
2018-04-28T18:08:09.927Z,10.77
2018-04-28T18:10:38.368Z,11.13
2018-04-28T18:13:06.819Z,11.87
2018-04-28T18:15:35.263Z,11.63
2018-04-28T18:18:03.675Z,12.30
2018-04-28T18:20:32.159Z,11.47
2018-04-28T18:23:00.578Z,11.97
2018-04-28T18:25:29.006Z,11.03
2018-04-28T18:27:57.439Z,12.30
2018-04-28T18:30:25.875Z,11.60
2018-04-28T18:32:54.348Z,11.43
2018-04-28T18:35:22.795Z,10.87
2018-04-28T18:37:51.278Z,11.00
2018-04-28T18:40:19.840Z,11.10
2018-04-28T18:42:48.278Z,11.60
2018-04-28T18:45:16.694Z,11.40
2018-04-28T18:47:45.194Z,10.77
2018-04-28T18:50:13.624Z,12.07
2018-04-28T18:52:42.056Z,11.13
2018-04-28T18:55:10.573Z,9.10
2018-04-28T18:57:39.028Z,9.73
2018-04-28T19:00:07.434Z,9.10
2018-04-28T19:02:35.823Z,8.67
2018-04-28T19:05:04.343Z,9.03
2018-04-28T19:07:32.796Z,10.27
2018-04-28T19:10:01.223Z,8.93
2018-04-28T19:12:29.679Z,8.63
2018-04-28T19:14:58.112Z,9.27
2018-04-28T19:17:26.602Z,9.30
2018-04-28T19:19:55.167Z,9.23
2018-04-28T19:22:23.619Z,9.60
2018-04-28T19:24:52.067Z,8.00
2018-04-28T19:27:20.528Z,8.00
2018-04-28T19:29:48.986Z,8.43
2018-04-28T19:32:17.380Z,8.50
2018-04-28T19:34:45.803Z,9.27
2018-04-28T19:37:14.299Z,8.83
2018-04-28T19:39:42.687Z,10.10
2018-04-28T19:42:11.053Z,8.87
2018-04-28T19:44:39.596Z,9.87
2018-04-28T19:47:08.035Z,9.90
2018-04-28T19:49:36.503Z,8.00
2018-04-28T19:52:04.935Z,8.40
2018-04-28T19:54:33.324Z,9.33
2018-04-28T19:57:01.884Z,9.70
2018-04-28T19:59:30.313Z,10.53
2018-04-28T20:01:58.774Z,10.33
2018-04-28T20:04:27.229Z,9.70
2018-04-28T20:06:55.604Z,9.33
2018-04-28T20:09:24.041Z,10.93
2018-04-28T20:11:52.455Z,10.07
2018-04-28T20:14:20.875Z,10.17
2018-04-28T20:16:49.320Z,9.93
2018-04-28T20:19:17.800Z,9.97
2018-04-28T20:21:46.215Z,9.90
2018-04-28T20:24:26.506Z,9.27
2018-04-28T20:26:54.943Z,10.60
2018-04-28T20:29:23.403Z,10.53
2018-04-28T20:31:51.795Z,10.33
2018-04-28T20:34:20.219Z,10.97
2018-04-28T20:36:48.627Z,10.37
2018-04-28T20:39:17.091Z,10.30
2018-04-28T20:41:45.499Z,10.87
2018-04-28T20:44:13.940Z,11.20
2018-04-28T20:46:42.349Z,11.07
2018-04-28T20:49:10.788Z,10.20
2018-04-28T20:51:39.186Z,9.90
2018-04-28T20:54:07.638Z,11.43
2018-04-28T20:56:36.073Z,11.87
2018-04-28T20:59:04.551Z,11.43
2018-04-28T21:01:33.007Z,11.73
2018-04-28T21:04:01.441Z,11.70
2018-04-28T21:06:29.882Z,11.73
2018-04-28T21:08:58.404Z,11.87
2018-04-28T21:11:26.898Z,12.13
2018-04-28T21:13:55.344Z,13.50
2018-04-28T21:16:23.809Z,13.77
2018-04-28T21:18:52.349Z,12.87
2018-04-28T21:21:20.690Z,13.67
2018-04-28T21:23:49.098Z,14.77
2018-04-28T21:26:17.548Z,13.93
2018-04-28T21:28:45.938Z,14.97
2018-04-28T21:31:14.443Z,13.87
2018-04-28T21:33:42.823Z,15.07
2018-04-28T21:36:11.255Z,13.30
2018-04-28T21:38:39.722Z,12.80
2018-04-28T21:41:08.136Z,12.33
2018-04-28T21:43:36.690Z,12.43
2018-04-28T21:46:05.095Z,14.00
2018-04-28T21:48:33.627Z,13.67
2018-04-28T21:51:02.010Z,13.90
2018-04-28T21:53:30.502Z,13.37
2018-04-28T21:55:58.982Z,14.93
2018-04-28T21:58:27.438Z,14.53
2018-04-28T22:00:55.920Z,15.03
2018-04-28T22:03:24.359Z,15.27
2018-04-28T22:05:52.803Z,14.80
2018-04-28T22:08:21.292Z,16.00
2018-04-28T22:10:49.727Z,14.73
2018-04-28T22:13:18.214Z,15.97
2018-04-28T22:15:46.579Z,16.53
2018-04-28T22:18:15.104Z,16.17
2018-04-28T22:20:43.503Z,15.00
2018-04-28T22:23:11.959Z,16.60
2018-04-28T22:25:40.398Z,16.10
2018-04-28T22:28:08.831Z,15.77
2018-04-28T22:30:37.375Z,16.70
2018-04-28T22:33:05.783Z,15.67
2018-04-28T22:35:34.254Z,15.97
2018-04-28T22:38:02.692Z,16.60
2018-04-28T22:40:31.140Z,15.17
2018-04-28T22:42:59.531Z,16.30
2018-04-28T22:45:27.992Z,16.90
2018-04-28T22:47:56.402Z,15.77
2018-04-28T22:50:24.811Z,16.43
2018-04-28T22:52:53.288Z,14.80
2018-04-28T22:55:21.705Z,16.33
2018-04-28T22:57:50.193Z,17.07
2018-04-28T23:00:21.211Z,17.17
2018-04-28T23:02:49.382Z,15.73
2018-04-28T23:05:17.785Z,16.77
2018-04-28T23:07:46.208Z,17.83
2018-04-28T23:10:14.664Z,18.40
2018-04-28T23:12:43.070Z,17.03
2018-04-28T23:15:11.527Z,18.40
2018-04-28T23:17:40.011Z,18.13
2018-04-28T23:20:08.483Z,18.70
2018-04-28T23:22:36.908Z,20.03
2018-04-28T23:25:05.382Z,20.00
2018-04-28T23:27:33.840Z,17.07
2018-04-28T23:30:02.397Z,17.73
2018-04-28T23:32:30.847Z,19.13
2018-04-28T23:34:59.260Z,15.97
2018-04-28T23:37:27.689Z,16.60
2018-04-28T23:39:56.090Z,16.47
2018-04-28T23:42:24.500Z,15.33
2018-04-28T23:44:52.915Z,16.17
2018-04-28T23:47:21.388Z,15.63
2018-04-28T23:49:49.908Z,14.80
2018-04-28T23:52:18.380Z,14.90
2018-04-28T23:54:46.785Z,15.50
2018-04-28T23:57:15.168Z,16.83
2018-04-28T23:59:43.672Z,15.13
